sensor_id;sensor_type;location;lat;lon;timestamp;temperature;humidity
13817;DHT22;6979;52.116;5.286;2024-02-23T00:01:45;8.60;99.90
13817;DHT22;6979;52.116;5.286;2024-02-23T00:04:13;8.70;99.90
13817;DHT22;6979;52.116;5.286;2024-02-23T00:06:40;8.70;99.90
13817;DHT22;6979;52.116;5.286;2024-02-23T00:09:08;8.80;99.90
13817;DHT22;6979;52.116;5.286;2024-02-23T00:11:39;8.80;99.90
13817;DHT22;6979;52.116;5.286;2024-02-23T00:14:10;8.90;99.90
13817;DHT22;6979;52.116;5.286;2024-02-23T00:16:39;8.90;99.90
13817;DHT22;6979;52.116;5.286;2024-02-23T00:19:07;9.00;99.90
13817;DHT22;6979;52.116;5.286;2024-02-23T00:21:35;9.10;99.90
13817;DHT22;6979;52.116;5.286;2024-02-23T00:24:02;9.10;99.90
13817;DHT22;6979;52.116;5.286;2024-02-23T00:26:31;9.20;99.90
13817;DHT22;6979;52.116;5.286;2024-02-23T00:28:58;9.30;99.90
13817;DHT22;6979;52.116;5.286;2024-02-23T00:31:25;9.30;99.90
13817;DHT22;6979;52.116;5.286;2024-02-23T00:33:52;9.40;99.90
13817;DHT22;6979;52.116;5.286;2024-02-23T00:36:18;9.40;99.90
13817;DHT22;6979;52.116;5.286;2024-02-23T00:38:45;9.50;99.90
13817;DHT22;6979;52.116;5.286;2024-02-23T00:41:12;9.50;99.90
13817;DHT22;6979;52.116;5.286;2024-02-23T00:43:41;9.60;99.90
13817;DHT22;6979;52.116;5.286;2024-02-23T00:46:11;9.60;99.90
13817;DHT22;6979;52.116;5.286;2024-02-23T00:48:38;9.70;99.90
13817;DHT22;6979;52.116;5.286;2024-02-23T00:51:07;9.70;99.90
13817;DHT22;6979;52.116;5.286;2024-02-23T00:53:36;9.70;99.90
13817;DHT22;6979;52.116;5.286;2024-02-23T00:56:04;9.70;99.90
13817;DHT22;6979;52.116;5.286;2024-02-23T00:58:31;9.80;99.90
13817;DHT22;6979;52.116;5.286;2024-02-23T01:01:05;9.80;99.90
13817;DHT22;6979;52.116;5.286;2024-02-23T01:03:34;9.70;99.90
13817;DHT22;6979;52.116;5.286;2024-02-23T01:06:00;9.80;99.90
13817;DHT22;6979;52.116;5.286;2024-02-23T01:08:30;9.80;99.90
13817;DHT22;6979;52.116;5.286;2024-02-23T01:10:57;9.70;99.90
13817;DHT22;6979;52.116;5.286;2024-02-23T01:13:24;9.70;99.90
13817;DHT22;6979;52.116;5.286;2024-02-23T01:15:51;9.70;99.90
13817;DHT22;6979;52.116;5.286;2024-02-23T01:18:20;9.60;99.90
13817;DHT22;6979;52.116;5.286;2024-02-23T01:20:47;9.60;99.90
13817;DHT22;6979;52.116;5.286;2024-02-23T01:23:14;9.50;99.90
13817;DHT22;6979;52.116;5.286;2024-02-23T01:25:41;9.50;99.90
13817;DHT22;6979;52.116;5.286;2024-02-23T01:28:08;9.40;99.90
13817;DHT22;6979;52.116;5.286;2024-02-23T01:30:35;9.40;99.90
13817;DHT22;6979;52.116;5.286;2024-02-23T01:33:02;9.40;99.90
13817;DHT22;6979;52.116;5.286;2024-02-23T01:35:30;9.40;99.90
13817;DHT22;6979;52.116;5.286;2024-02-23T01:37:57;9.30;99.90
13817;DHT22;6979;52.116;5.286;2024-02-23T01:40:24;9.40;99.90
13817;DHT22;6979;52.116;5.286;2024-02-23T01:43:00;9.40;99.90
13817;DHT22;6979;52.116;5.286;2024-02-23T01:45:28;9.40;99.90
13817;DHT22;6979;52.116;5.286;2024-02-23T01:47:55;9.40;99.90
13817;DHT22;6979;52.116;5.286;2024-02-23T01:50:22;9.40;99.90
13817;DHT22;6979;52.116;5.286;2024-02-23T01:52:50;9.40;99.90
13817;DHT22;6979;52.116;5.286;2024-02-23T01:55:19;9.40;99.90
13817;DHT22;6979;52.116;5.286;2024-02-23T01:57:47;9.40;99.90
13817;DHT22;6979;52.116;5.286;2024-02-23T02:00:16;9.40;99.90
13817;DHT22;6979;52.116;5.286;2024-02-23T02:02:48;9.40;99.90
13817;DHT22;6979;52.116;5.286;2024-02-23T02:05:16;9.40;99.90
13817;DHT22;6979;52.116;5.286;2024-02-23T02:07:45;9.40;99.90
13817;DHT22;6979;52.116;5.286;2024-02-23T02:10:14;9.50;99.90
13817;DHT22;6979;52.116;5.286;2024-02-23T02:12:41;9.50;99.90
13817;DHT22;6979;52.116;5.286;2024-02-23T02:15:08;9.50;99.90
13817;DHT22;6979;52.116;5.286;2024-02-23T02:17:35;9.50;99.90
13817;DHT22;6979;52.116;5.286;2024-02-23T02:20:03;9.60;99.90
13817;DHT22;6979;52.116;5.286;2024-02-23T02:22:32;9.60;99.90
13817;DHT22;6979;52.116;5.286;2024-02-23T02:24:59;9.60;99.90
13817;DHT22;6979;52.116;5.286;2024-02-23T02:27:28;9.60;99.90
13817;DHT22;6979;52.116;5.286;2024-02-23T02:29:54;9.60;99.90
13817;DHT22;6979;52.116;5.286;2024-02-23T02:32:22;9.60;99.90
13817;DHT22;6979;52.116;5.286;2024-02-23T02:34:49;9.60;99.90
13817;DHT22;6979;52.116;5.286;2024-02-23T02:37:16;9.60;99.90
13817;DHT22;6979;52.116;5.286;2024-02-23T02:39:43;9.60;99.90
13817;DHT22;6979;52.116;5.286;2024-02-23T02:42:10;9.60;99.90
13817;DHT22;6979;52.116;5.286;2024-02-23T02:44:38;9.60;99.90
13817;DHT22;6979;52.116;5.286;2024-02-23T02:47:05;9.50;99.90
13817;DHT22;6979;52.116;5.286;2024-02-23T02:49:32;9.50;99.90
13817;DHT22;6979;52.116;5.286;2024-02-23T02:51:59;9.50;99.90
13817;DHT22;6979;52.116;5.286;2024-02-23T02:54:27;9.50;99.90
13817;DHT22;6979;52.116;5.286;2024-02-23T02:56:54;9.50;99.90
13817;DHT22;6979;52.116;5.286;2024-02-23T02:59:24;9.50;99.90
13817;DHT22;6979;52.116;5.286;2024-02-23T03:01:52;9.50;99.90
13817;DHT22;6979;52.116;5.286;2024-02-23T03:04:18;9.50;99.90
13817;DHT22;6979;52.116;5.286;2024-02-23T03:06:45;9.50;99.90
13817;DHT22;6979;52.116;5.286;2024-02-23T03:09:12;9.50;99.90
13817;DHT22;6979;52.116;5.286;2024-02-23T03:11:39;9.50;99.90
13817;DHT22;6979;52.116;5.286;2024-02-23T03:14:08;9.50;99.90
13817;DHT22;6979;52.116;5.286;2024-02-23T03:16:35;9.50;99.90
13817;DHT22;6979;52.116;5.286;2024-02-23T03:19:04;9.50;99.90
13817;DHT22;6979;52.116;5.286;2024-02-23T03:21:33;9.40;99.90
13817;DHT22;6979;52.116;5.286;2024-02-23T03:24:00;9.40;99.90
13817;DHT22;6979;52.116;5.286;2024-02-23T03:26:27;9.40;99.90
13817;DHT22;6979;52.116;5.286;2024-02-23T03:28:56;9.40;99.90
13817;DHT22;6979;52.116;5.286;2024-02-23T03:31:22;9.30;99.90
13817;DHT22;6979;52.116;5.286;2024-02-23T03:33:49;9.40;99.90
13817;DHT22;6979;52.116;5.286;2024-02-23T03:36:17;9.30;99.90
13817;DHT22;6979;52.116;5.286;2024-02-23T03:38:44;9.40;99.90
13817;DHT22;6979;52.116;5.286;2024-02-23T03:41:11;9.30;99.90
13817;DHT22;6979;52.116;5.286;2024-02-23T03:43:38;9.30;99.90
13817;DHT22;6979;52.116;5.286;2024-02-23T03:46:06;9.30;99.90
13817;DHT22;6979;52.116;5.286;2024-02-23T03:48:33;9.20;99.90
13817;DHT22;6979;52.116;5.286;2024-02-23T03:51:03;9.20;99.90
13817;DHT22;6979;52.116;5.286;2024-02-23T03:53:31;9.20;99.90
13817;DHT22;6979;52.116;5.286;2024-02-23T03:55:58;9.20;99.90
13817;DHT22;6979;52.116;5.286;2024-02-23T03:58:25;9.20;99.90
13817;DHT22;6979;52.116;5.286;2024-02-23T04:00:52;9.20;99.90
13817;DHT22;6979;52.116;5.286;2024-02-23T04:03:20;9.10;99.90
13817;DHT22;6979;52.116;5.286;2024-02-23T04:05:47;9.10;99.90
13817;DHT22;6979;52.116;5.286;2024-02-23T04:08:13;9.20;99.90
13817;DHT22;6979;52.116;5.286;2024-02-23T04:10:42;9.10;99.90
13817;DHT22;6979;52.116;5.286;2024-02-23T04:13:09;9.10;99.90
13817;DHT22;6979;52.116;5.286;2024-02-23T04:15:39;9.00;99.90
13817;DHT22;6979;52.116;5.286;2024-02-23T04:18:06;9.00;99.90
13817;DHT22;6979;52.116;5.286;2024-02-23T04:20:35;9.10;99.90
13817;DHT22;6979;52.116;5.286;2024-02-23T04:23:02;9.00;99.90
13817;DHT22;6979;52.116;5.286;2024-02-23T04:25:29;9.00;99.90
13817;DHT22;6979;52.116;5.286;2024-02-23T04:27:57;9.00;99.90
13817;DHT22;6979;52.116;5.286;2024-02-23T04:30:24;9.00;99.90
13817;DHT22;6979;52.116;5.286;2024-02-23T04:32:51;8.90;99.90
13817;DHT22;6979;52.116;5.286;2024-02-23T04:35:17;8.90;99.90
13817;DHT22;6979;52.116;5.286;2024-02-23T04:37:45;8.90;99.90
13817;DHT22;6979;52.116;5.286;2024-02-23T04:40:12;8.90;99.90
13817;DHT22;6979;52.116;5.286;2024-02-23T04:42:39;8.90;99.90
13817;DHT22;6979;52.116;5.286;2024-02-23T04:45:08;8.90;99.90
13817;DHT22;6979;52.116;5.286;2024-02-23T04:47:35;8.80;99.90
13817;DHT22;6979;52.116;5.286;2024-02-23T04:50:06;8.90;99.90
13817;DHT22;6979;52.116;5.286;2024-02-23T04:52:34;8.80;99.90
13817;DHT22;6979;52.116;5.286;2024-02-23T04:55:01;8.80;99.90
13817;DHT22;6979;52.116;5.286;2024-02-23T04:57:28;8.80;99.90
13817;DHT22;6979;52.116;5.286;2024-02-23T04:59:55;8.80;99.90
13817;DHT22;6979;52.116;5.286;2024-02-23T05:02:23;8.80;99.90
13817;DHT22;6979;52.116;5.286;2024-02-23T05:04:50;8.80;99.90
13817;DHT22;6979;52.116;5.286;2024-02-23T05:07:17;8.80;99.90
13817;DHT22;6979;52.116;5.286;2024-02-23T05:09:46;8.80;99.90
13817;DHT22;6979;52.116;5.286;2024-02-23T05:12:13;8.90;99.90
13817;DHT22;6979;52.116;5.286;2024-02-23T05:14:40;8.90;99.90
13817;DHT22;6979;52.116;5.286;2024-02-23T05:17:07;8.90;99.90
13817;DHT22;6979;52.116;5.286;2024-02-23T05:19:36;9.00;99.90
13817;DHT22;6979;52.116;5.286;2024-02-23T05:22:03;9.00;99.90
13817;DHT22;6979;52.116;5.286;2024-02-23T05:24:30;9.00;99.90
13817;DHT22;6979;52.116;5.286;2024-02-23T05:26:57;9.00;99.90
13817;DHT22;6979;52.116;5.286;2024-02-23T05:29:27;9.00;99.90
13817;DHT22;6979;52.116;5.286;2024-02-23T05:31:54;9.10;99.90
13817;DHT22;6979;52.116;5.286;2024-02-23T05:34:22;9.10;99.90
13817;DHT22;6979;52.116;5.286;2024-02-23T05:36:50;9.10;99.90
13817;DHT22;6979;52.116;5.286;2024-02-23T05:39:17;9.10;99.90
13817;DHT22;6979;52.116;5.286;2024-02-23T05:41:44;9.20;99.90
13817;DHT22;6979;52.116;5.286;2024-02-23T05:44:11;9.20;99.90
13817;DHT22;6979;52.116;5.286;2024-02-23T05:46:39;9.20;99.90
13817;DHT22;6979;52.116;5.286;2024-02-23T05:49:05;9.20;99.90
13817;DHT22;6979;52.116;5.286;2024-02-23T05:51:32;9.20;99.90
13817;DHT22;6979;52.116;5.286;2024-02-23T05:54:14;9.20;99.90
13817;DHT22;6979;52.116;5.286;2024-02-23T05:56:41;9.20;99.90
13817;DHT22;6979;52.116;5.286;2024-02-23T05:59:07;9.20;99.90
13817;DHT22;6979;52.116;5.286;2024-02-23T06:01:34;9.20;99.90
13817;DHT22;6979;52.116;5.286;2024-02-23T06:04:01;9.20;99.90
13817;DHT22;6979;52.116;5.286;2024-02-23T06:06:28;9.20;99.90
13817;DHT22;6979;52.116;5.286;2024-02-23T06:08:57;9.20;99.90
13817;DHT22;6979;52.116;5.286;2024-02-23T06:11:25;9.20;99.90
13817;DHT22;6979;52.116;5.286;2024-02-23T06:13:52;9.20;99.90
13817;DHT22;6979;52.116;5.286;2024-02-23T06:16:18;9.20;99.90
13817;DHT22;6979;52.116;5.286;2024-02-23T06:18:45;9.20;99.90
13817;DHT22;6979;52.116;5.286;2024-02-23T06:21:13;9.20;99.90
13817;DHT22;6979;52.116;5.286;2024-02-23T06:23:40;9.20;99.90
13817;DHT22;6979;52.116;5.286;2024-02-23T06:26:07;9.20;99.90
13817;DHT22;6979;52.116;5.286;2024-02-23T06:28:36;9.20;99.90
13817;DHT22;6979;52.116;5.286;2024-02-23T06:31:04;9.20;99.90
13817;DHT22;6979;52.116;5.286;2024-02-23T06:33:32;9.20;99.90
13817;DHT22;6979;52.116;5.286;2024-02-23T06:36:02;9.20;99.90
13817;DHT22;6979;52.116;5.286;2024-02-23T06:38:30;9.20;99.90
13817;DHT22;6979;52.116;5.286;2024-02-23T06:40:59;9.20;99.90
13817;DHT22;6979;52.116;5.286;2024-02-23T06:43:30;9.20;99.90
13817;DHT22;6979;52.116;5.286;2024-02-23T06:45:58;9.30;99.90
13817;DHT22;6979;52.116;5.286;2024-02-23T06:48:25;9.30;99.90
13817;DHT22;6979;52.116;5.286;2024-02-23T06:50:52;9.30;99.90
13817;DHT22;6979;52.116;5.286;2024-02-23T06:53:18;9.30;99.90
13817;DHT22;6979;52.116;5.286;2024-02-23T06:55:45;9.40;99.90
13817;DHT22;6979;52.116;5.286;2024-02-23T06:58:12;9.30;99.90
13817;DHT22;6979;52.116;5.286;2024-02-23T07:00:40;9.40;99.90
13817;DHT22;6979;52.116;5.286;2024-02-23T07:03:08;9.40;99.90
13817;DHT22;6979;52.116;5.286;2024-02-23T07:05:35;9.40;99.90
13817;DHT22;6979;52.116;5.286;2024-02-23T07:08:02;9.40;99.90
13817;DHT22;6979;52.116;5.286;2024-02-23T07:10:29;9.40;99.90
13817;DHT22;6979;52.116;5.286;2024-02-23T07:12:56;9.50;99.90
13817;DHT22;6979;52.116;5.286;2024-02-23T07:15:23;9.50;99.90
13817;DHT22;6979;52.116;5.286;2024-02-23T07:17:51;9.50;99.90
13817;DHT22;6979;52.116;5.286;2024-02-23T07:20:19;9.50;99.90
13817;DHT22;6979;52.116;5.286;2024-02-23T07:22:47;9.50;99.90
13817;DHT22;6979;52.116;5.286;2024-02-23T07:25:18;9.50;99.90
13817;DHT22;6979;52.116;5.286;2024-02-23T07:27:46;9.60;99.90
13817;DHT22;6979;52.116;5.286;2024-02-23T07:30:15;9.60;99.90
13817;DHT22;6979;52.116;5.286;2024-02-23T07:32:42;9.50;99.90
13817;DHT22;6979;52.116;5.286;2024-02-23T07:35:09;9.60;99.90
13817;DHT22;6979;52.116;5.286;2024-02-23T07:37:37;9.60;99.90
13817;DHT22;6979;52.116;5.286;2024-02-23T07:40:05;9.60;99.90
13817;DHT22;6979;52.116;5.286;2024-02-23T07:42:33;9.60;99.90
13817;DHT22;6979;52.116;5.286;2024-02-23T07:45:01;9.70;99.90
13817;DHT22;6979;52.116;5.286;2024-02-23T07:47:30;9.70;99.90
13817;DHT22;6979;52.116;5.286;2024-02-23T07:49:57;9.70;99.90
13817;DHT22;6979;52.116;5.286;2024-02-23T07:52:24;9.70;99.90
13817;DHT22;6979;52.116;5.286;2024-02-23T07:54:52;9.80;99.90
13817;DHT22;6979;52.116;5.286;2024-02-23T07:57:19;9.80;99.90
13817;DHT22;6979;52.116;5.286;2024-02-23T07:59:49;9.80;99.90
13817;DHT22;6979;52.116;5.286;2024-02-23T08:02:18;9.80;99.90
13817;DHT22;6979;52.116;5.286;2024-02-23T08:04:45;9.90;99.90
13817;DHT22;6979;52.116;5.286;2024-02-23T08:07:15;9.80;99.90
13817;DHT22;6979;52.116;5.286;2024-02-23T08:09:42;9.80;99.90
13817;DHT22;6979;52.116;5.286;2024-02-23T08:12:11;9.80;99.90
13817;DHT22;6979;52.116;5.286;2024-02-23T08:14:39;9.80;99.90
13817;DHT22;6979;52.116;5.286;2024-02-23T08:17:06;9.80;99.90
13817;DHT22;6979;52.116;5.286;2024-02-23T08:19:33;9.80;99.90
13817;DHT22;6979;52.116;5.286;2024-02-23T08:22:00;9.80;99.90
13817;DHT22;6979;52.116;5.286;2024-02-23T08:24:27;9.80;99.90
13817;DHT22;6979;52.116;5.286;2024-02-23T08:26:54;9.80;99.90
13817;DHT22;6979;52.116;5.286;2024-02-23T08:29:25;9.90;99.90
13817;DHT22;6979;52.116;5.286;2024-02-23T08:31:54;9.80;99.90
13817;DHT22;6979;52.116;5.286;2024-02-23T08:34:21;9.90;99.90
13817;DHT22;6979;52.116;5.286;2024-02-23T08:36:48;9.80;99.90
13817;DHT22;6979;52.116;5.286;2024-02-23T08:39:15;9.80;99.90
13817;DHT22;6979;52.116;5.286;2024-02-23T08:41:41;9.80;99.90
13817;DHT22;6979;52.116;5.286;2024-02-23T08:44:08;9.80;99.90
13817;DHT22;6979;52.116;5.286;2024-02-23T08:46:36;9.80;99.90
13817;DHT22;6979;52.116;5.286;2024-02-23T08:49:05;9.80;99.90
13817;DHT22;6979;52.116;5.286;2024-02-23T08:51:35;9.80;99.90
13817;DHT22;6979;52.116;5.286;2024-02-23T08:54:03;9.80;99.90
13817;DHT22;6979;52.116;5.286;2024-02-23T08:56:31;9.80;99.90
13817;DHT22;6979;52.116;5.286;2024-02-23T08:58:58;9.80;99.90
13817;DHT22;6979;52.116;5.286;2024-02-23T09:01:25;9.80;99.90
13817;DHT22;6979;52.116;5.286;2024-02-23T09:03:57;9.80;99.90
13817;DHT22;6979;52.116;5.286;2024-02-23T09:06:24;9.80;99.90
13817;DHT22;6979;52.116;5.286;2024-02-23T09:08:50;9.80;99.90
13817;DHT22;6979;52.116;5.286;2024-02-23T09:11:17;9.80;99.90
13817;DHT22;6979;52.116;5.286;2024-02-23T09:13:44;9.80;99.90
13817;DHT22;6979;52.116;5.286;2024-02-23T09:16:11;9.80;99.90
13817;DHT22;6979;52.116;5.286;2024-02-23T09:18:39;9.80;99.90
13817;DHT22;6979;52.116;5.286;2024-02-23T09:21:07;9.80;99.90
13817;DHT22;6979;52.116;5.286;2024-02-23T09:23:34;9.80;99.90
13817;DHT22;6979;52.116;5.286;2024-02-23T09:26:01;9.80;99.90
13817;DHT22;6979;52.116;5.286;2024-02-23T09:28:30;9.80;99.90
13817;DHT22;6979;52.116;5.286;2024-02-23T09:30:57;9.80;99.90
13817;DHT22;6979;52.116;5.286;2024-02-23T09:33:24;9.80;99.90
13817;DHT22;6979;52.116;5.286;2024-02-23T09:35:51;9.90;99.90
13817;DHT22;6979;52.116;5.286;2024-02-23T09:38:22;9.80;99.90
13817;DHT22;6979;52.116;5.286;2024-02-23T09:40:50;9.90;99.90
13817;DHT22;6979;52.116;5.286;2024-02-23T09:43:17;9.90;99.90
13817;DHT22;6979;52.116;5.286;2024-02-23T09:45:45;9.90;99.90
13817;DHT22;6979;52.116;5.286;2024-02-23T09:48:14;9.90;99.90
13817;DHT22;6979;52.116;5.286;2024-02-23T09:50:41;9.90;99.90
13817;DHT22;6979;52.116;5.286;2024-02-23T09:53:11;10.00;99.90
13817;DHT22;6979;52.116;5.286;2024-02-23T09:55:41;10.00;99.90
13817;DHT22;6979;52.116;5.286;2024-02-23T09:58:10;10.00;99.90
13817;DHT22;6979;52.116;5.286;2024-02-23T10:00:39;10.10;99.90
13817;DHT22;6979;52.116;5.286;2024-02-23T10:03:06;10.10;99.90
13817;DHT22;6979;52.116;5.286;2024-02-23T10:05:33;10.10;99.90
13817;DHT22;6979;52.116;5.286;2024-02-23T10:08:01;10.20;99.90
13817;DHT22;6979;52.116;5.286;2024-02-23T10:10:29;10.30;99.90
13817;DHT22;6979;52.116;5.286;2024-02-23T10:12:58;10.30;99.90
13817;DHT22;6979;52.116;5.286;2024-02-23T10:15:26;10.40;99.90
13817;DHT22;6979;52.116;5.286;2024-02-23T10:17:55;10.40;99.90
13817;DHT22;6979;52.116;5.286;2024-02-23T10:20:22;10.40;99.90
13817;DHT22;6979;52.116;5.286;2024-02-23T10:22:52;10.50;99.90
13817;DHT22;6979;52.116;5.286;2024-02-23T10:25:19;10.50;99.90
13817;DHT22;6979;52.116;5.286;2024-02-23T10:27:46;10.60;99.90
13817;DHT22;6979;52.116;5.286;2024-02-23T10:30:15;10.60;99.90
13817;DHT22;6979;52.116;5.286;2024-02-23T10:32:42;10.60;99.90
13817;DHT22;6979;52.116;5.286;2024-02-23T10:35:13;10.60;99.90
13817;DHT22;6979;52.116;5.286;2024-02-23T10:37:44;10.60;99.90
13817;DHT22;6979;52.116;5.286;2024-02-23T10:40:12;10.60;99.90
13817;DHT22;6979;52.116;5.286;2024-02-23T10:42:44;10.60;99.90
13817;DHT22;6979;52.116;5.286;2024-02-23T10:45:16;10.50;99.90
13817;DHT22;6979;52.116;5.286;2024-02-23T10:47:43;10.50;99.90
13817;DHT22;6979;52.116;5.286;2024-02-23T10:50:10;10.50;99.90
13817;DHT22;6979;52.116;5.286;2024-02-23T10:52:40;10.50;99.90
13817;DHT22;6979;52.116;5.286;2024-02-23T10:55:09;10.50;99.90
13817;DHT22;6979;52.116;5.286;2024-02-23T10:57:39;10.50;99.90
13817;DHT22;6979;52.116;5.286;2024-02-23T11:00:08;10.50;99.90
13817;DHT22;6979;52.116;5.286;2024-02-23T11:02:41;10.60;99.90
13817;DHT22;6979;52.116;5.286;2024-02-23T11:05:11;10.60;99.90
13817;DHT22;6979;52.116;5.286;2024-02-23T11:07:39;10.60;99.90
13817;DHT22;6979;52.116;5.286;2024-02-23T11:10:06;10.70;99.90
13817;DHT22;6979;52.116;5.286;2024-02-23T11:12:35;10.80;99.90
13817;DHT22;6979;52.116;5.286;2024-02-23T11:15:02;10.80;99.90
13817;DHT22;6979;52.116;5.286;2024-02-23T11:17:31;10.80;99.90
13817;DHT22;6979;52.116;5.286;2024-02-23T11:20:02;10.90;99.90
13817;DHT22;6979;52.116;5.286;2024-02-23T11:22:31;10.90;99.90
13817;DHT22;6979;52.116;5.286;2024-02-23T11:25:00;11.00;99.90
13817;DHT22;6979;52.116;5.286;2024-02-23T11:27:30;11.00;99.90
13817;DHT22;6979;52.116;5.286;2024-02-23T11:30:02;11.10;99.90
13817;DHT22;6979;52.116;5.286;2024-02-23T11:32:38;11.10;99.90
13817;DHT22;6979;52.116;5.286;2024-02-23T11:35:08;11.20;99.90
13817;DHT22;6979;52.116;5.286;2024-02-23T11:37:47;11.20;99.90
13817;DHT22;6979;52.116;5.286;2024-02-23T11:40:14;11.30;99.90
13817;DHT22;6979;52.116;5.286;2024-02-23T11:42:42;11.30;99.90
13817;DHT22;6979;52.116;5.286;2024-02-23T11:45:09;11.30;99.90
13817;DHT22;6979;52.116;5.286;2024-02-23T11:47:37;11.40;99.90
13817;DHT22;6979;52.116;5.286;2024-02-23T11:50:09;11.40;99.90
13817;DHT22;6979;52.116;5.286;2024-02-23T11:52:37;11.40;99.90
13817;DHT22;6979;52.116;5.286;2024-02-23T11:55:05;11.40;99.90
13817;DHT22;6979;52.116;5.286;2024-02-23T11:57:34;11.50;99.90
13817;DHT22;6979;52.116;5.286;2024-02-23T12:00:04;11.50;99.90
13817;DHT22;6979;52.116;5.286;2024-02-23T12:02:32;11.50;99.90
13817;DHT22;6979;52.116;5.286;2024-02-23T12:05:01;11.50;99.90
13817;DHT22;6979;52.116;5.286;2024-02-23T12:07:31;11.50;99.90
13817;DHT22;6979;52.116;5.286;2024-02-23T12:09:59;11.50;99.90
13817;DHT22;6979;52.116;5.286;2024-02-23T12:12:29;11.50;99.90
13817;DHT22;6979;52.116;5.286;2024-02-23T12:14:56;11.50;99.90
13817;DHT22;6979;52.116;5.286;2024-02-23T12:17:24;11.60;99.90
13817;DHT22;6979;52.116;5.286;2024-02-23T12:19:58;11.60;99.90
13817;DHT22;6979;52.116;5.286;2024-02-23T12:25:08;11.60;99.90
13817;DHT22;6979;52.116;5.286;2024-02-23T12:27:35;11.70;99.90
13817;DHT22;6979;52.116;5.286;2024-02-23T12:30:06;11.70;99.90
13817;DHT22;6979;52.116;5.286;2024-02-23T12:32:34;11.70;99.90
13817;DHT22;6979;52.116;5.286;2024-02-23T12:35:01;11.80;99.90
13817;DHT22;6979;52.116;5.286;2024-02-23T12:37:28;11.80;99.90
13817;DHT22;6979;52.116;5.286;2024-02-23T12:39:57;11.80;99.90
13817;DHT22;6979;52.116;5.286;2024-02-23T12:42:31;11.90;99.90
13817;DHT22;6979;52.116;5.286;2024-02-23T12:44:58;11.90;99.90
13817;DHT22;6979;52.116;5.286;2024-02-23T12:47:31;12.00;99.90
13817;DHT22;6979;52.116;5.286;2024-02-23T12:49:59;12.00;99.90
13817;DHT22;6979;52.116;5.286;2024-02-23T12:52:28;12.00;99.90
13817;DHT22;6979;52.116;5.286;2024-02-23T12:54:54;12.00;99.90
13817;DHT22;6979;52.116;5.286;2024-02-23T12:57:21;12.00;99.90
13817;DHT22;6979;52.116;5.286;2024-02-23T12:59:52;12.00;99.90
13817;DHT22;6979;52.116;5.286;2024-02-23T13:02:25;12.00;99.90
13817;DHT22;6979;52.116;5.286;2024-02-23T13:04:53;12.00;99.90
13817;DHT22;6979;52.116;5.286;2024-02-23T13:07:27;12.10;99.90
13817;DHT22;6979;52.116;5.286;2024-02-23T13:09:54;12.10;99.90
13817;DHT22;6979;52.116;5.286;2024-02-23T13:12:21;12.20;99.90
13817;DHT22;6979;52.116;5.286;2024-02-23T13:14:52;12.20;99.90
13817;DHT22;6979;52.116;5.286;2024-02-23T13:17:22;12.20;99.90
13817;DHT22;6979;52.116;5.286;2024-02-23T13:19:49;12.20;99.90
13817;DHT22;6979;52.116;5.286;2024-02-23T13:22:16;12.20;99.90
13817;DHT22;6979;52.116;5.286;2024-02-23T13:24:47;12.30;99.90
13817;DHT22;6979;52.116;5.286;2024-02-23T13:27:17;12.30;99.90
13817;DHT22;6979;52.116;5.286;2024-02-23T13:29:45;12.30;99.90
13817;DHT22;6979;52.116;5.286;2024-02-23T13:32:13;12.40;99.90
13817;DHT22;6979;52.116;5.286;2024-02-23T13:34:40;12.40;99.90
13817;DHT22;6979;52.116;5.286;2024-02-23T13:37:06;12.50;99.90
13817;DHT22;6979;52.116;5.286;2024-02-23T13:39:34;12.50;99.90
13817;DHT22;6979;52.116;5.286;2024-02-23T13:42:01;12.50;99.90
13817;DHT22;6979;52.116;5.286;2024-02-23T13:44:33;12.50;99.90
13817;DHT22;6979;52.116;5.286;2024-02-23T13:47:03;12.60;99.90
13817;DHT22;6979;52.116;5.286;2024-02-23T13:49:34;12.60;99.90
13817;DHT22;6979;52.116;5.286;2024-02-23T13:52:00;12.60;99.90
13817;DHT22;6979;52.116;5.286;2024-02-23T13:54:30;12.60;99.90
13817;DHT22;6979;52.116;5.286;2024-02-23T13:56:58;12.70;99.90
13817;DHT22;6979;52.116;5.286;2024-02-23T13:59:25;12.60;99.90
13817;DHT22;6979;52.116;5.286;2024-02-23T14:01:52;12.60;99.90
13817;DHT22;6979;52.116;5.286;2024-02-23T14:04:21;12.70;99.90
13817;DHT22;6979;52.116;5.286;2024-02-23T14:06:49;12.70;99.90
13817;DHT22;6979;52.116;5.286;2024-02-23T14:09:16;12.70;99.90
13817;DHT22;6979;52.116;5.286;2024-02-23T14:11:44;12.70;99.90
13817;DHT22;6979;52.116;5.286;2024-02-23T14:14:11;12.80;99.90
13817;DHT22;6979;52.116;5.286;2024-02-23T14:16:39;12.80;99.90
13817;DHT22;6979;52.116;5.286;2024-02-23T14:19:06;12.90;99.90
13817;DHT22;6979;52.116;5.286;2024-02-23T14:21:35;12.90;99.90
13817;DHT22;6979;52.116;5.286;2024-02-23T14:24:07;13.00;99.90
13817;DHT22;6979;52.116;5.286;2024-02-23T14:26:34;13.00;99.90
13817;DHT22;6979;52.116;5.286;2024-02-23T14:29:06;13.00;99.90
13817;DHT22;6979;52.116;5.286;2024-02-23T14:31:33;13.00;99.90
13817;DHT22;6979;52.116;5.286;2024-02-23T14:34:00;13.00;99.90
13817;DHT22;6979;52.116;5.286;2024-02-23T14:36:27;13.00;99.90
13817;DHT22;6979;52.116;5.286;2024-02-23T14:38:59;13.10;99.90
13817;DHT22;6979;52.116;5.286;2024-02-23T14:41:27;13.10;99.90
13817;DHT22;6979;52.116;5.286;2024-02-23T14:43:54;13.20;99.90
13817;DHT22;6979;52.116;5.286;2024-02-23T14:46:21;13.20;99.90
13817;DHT22;6979;52.116;5.286;2024-02-23T14:48:48;13.20;99.90
13817;DHT22;6979;52.116;5.286;2024-02-23T14:51:15;13.20;99.90
13817;DHT22;6979;52.116;5.286;2024-02-23T14:53:42;13.20;99.90
13817;DHT22;6979;52.116;5.286;2024-02-23T14:56:09;13.10;99.90
13817;DHT22;6979;52.116;5.286;2024-02-23T14:58:37;13.20;99.90
13817;DHT22;6979;52.116;5.286;2024-02-23T15:01:05;13.10;99.90
13817;DHT22;6979;52.116;5.286;2024-02-23T15:03:35;13.10;99.90
13817;DHT22;6979;52.116;5.286;2024-02-23T15:06:02;13.10;99.90
13817;DHT22;6979;52.116;5.286;2024-02-23T15:08:29;13.10;99.90
13817;DHT22;6979;52.116;5.286;2024-02-23T15:10:56;13.00;99.90
13817;DHT22;6979;52.116;5.286;2024-02-23T15:13:22;13.00;99.90
13817;DHT22;6979;52.116;5.286;2024-02-23T15:15:52;13.00;99.90
13817;DHT22;6979;52.116;5.286;2024-02-23T15:18:22;13.00;99.90
13817;DHT22;6979;52.116;5.286;2024-02-23T15:20:48;13.00;99.90
13817;DHT22;6979;52.116;5.286;2024-02-23T15:23:17;12.90;99.90
13817;DHT22;6979;52.116;5.286;2024-02-23T15:25:44;12.90;99.90
13817;DHT22;6979;52.116;5.286;2024-02-23T15:28:11;12.90;99.90
13817;DHT22;6979;52.116;5.286;2024-02-23T15:30:38;12.90;99.90
13817;DHT22;6979;52.116;5.286;2024-02-23T15:33:06;12.90;99.90
13817;DHT22;6979;52.116;5.286;2024-02-23T15:35:33;12.90;99.90
13817;DHT22;6979;52.116;5.286;2024-02-23T15:38:02;12.80;99.90
13817;DHT22;6979;52.116;5.286;2024-02-23T15:40:29;12.80;99.90
13817;DHT22;6979;52.116;5.286;2024-02-23T15:42:56;12.80;99.90
13817;DHT22;6979;52.116;5.286;2024-02-23T15:45:23;12.80;99.90
13817;DHT22;6979;52.116;5.286;2024-02-23T15:47:52;12.80;99.90
13817;DHT22;6979;52.116;5.286;2024-02-23T15:50:26;12.70;99.90
13817;DHT22;6979;52.116;5.286;2024-02-23T15:52:53;12.80;99.90
13817;DHT22;6979;52.116;5.286;2024-02-23T15:55:23;12.70;99.90
13817;DHT22;6979;52.116;5.286;2024-02-23T15:57:57;12.70;99.90
13817;DHT22;6979;52.116;5.286;2024-02-23T16:00:24;12.70;99.90
13817;DHT22;6979;52.116;5.286;2024-02-23T16:02:51;12.70;99.90